sensor_id;sensor_type;location;lat;lon;timestamp;temperature;humidity
774;DHT22;370;48.810;9.150;2023-05-14T00:01:53;12.40;64.30
774;DHT22;370;48.810;9.150;2023-05-14T00:04:21;12.40;63.60
774;DHT22;370;48.810;9.150;2023-05-14T00:06:48;12.40;64.60
774;DHT22;370;48.810;9.150;2023-05-14T00:09:15;12.50;62.60
774;DHT22;370;48.810;9.150;2023-05-14T00:11:42;12.50;62.60
774;DHT22;370;48.810;9.150;2023-05-14T00:14:09;12.50;60.40
774;DHT22;370;48.810;9.150;2023-05-14T00:16:36;12.40;58.90
774;DHT22;370;48.810;9.150;2023-05-14T00:19:04;12.40;59.30
774;DHT22;370;48.810;9.150;2023-05-14T00:21:31;12.30;60.20
774;DHT22;370;48.810;9.150;2023-05-14T00:23:58;12.30;60.60
774;DHT22;370;48.810;9.150;2023-05-14T00:26:24;12.30;59.80
774;DHT22;370;48.810;9.150;2023-05-14T00:28:51;12.30;59.90
774;DHT22;370;48.810;9.150;2023-05-14T00:31:18;12.20;60.00
774;DHT22;370;48.810;9.150;2023-05-14T00:33:45;12.20;60.00
774;DHT22;370;48.810;9.150;2023-05-14T00:36:13;12.20;59.40
774;DHT22;370;48.810;9.150;2023-05-14T00:38:40;12.10;59.70
774;DHT22;370;48.810;9.150;2023-05-14T00:41:07;12.10;59.60
774;DHT22;370;48.810;9.150;2023-05-14T00:43:34;12.00;60.30
774;DHT22;370;48.810;9.150;2023-05-14T00:46:01;12.00;60.70
774;DHT22;370;48.810;9.150;2023-05-14T00:48:28;12.00;61.30
774;DHT22;370;48.810;9.150;2023-05-14T00:50:55;11.90;60.50
774;DHT22;370;48.810;9.150;2023-05-14T00:53:24;11.90;62.00
774;DHT22;370;48.810;9.150;2023-05-14T00:55:51;11.90;62.00
774;DHT22;370;48.810;9.150;2023-05-14T00:58:19;11.90;61.10
774;DHT22;370;48.810;9.150;2023-05-14T01:00:47;11.80;59.90
774;DHT22;370;48.810;9.150;2023-05-14T01:03:14;11.80;59.30
774;DHT22;370;48.810;9.150;2023-05-14T01:05:46;11.80;58.80
774;DHT22;370;48.810;9.150;2023-05-14T01:08:26;11.70;58.60
774;DHT22;370;48.810;9.150;2023-05-14T01:10:59;11.60;58.80
774;DHT22;370;48.810;9.150;2023-05-14T01:13:45;11.50;58.90
774;DHT22;370;48.810;9.150;2023-05-14T01:16:17;11.40;59.40
774;DHT22;370;48.810;9.150;2023-05-14T01:18:45;11.40;59.70
774;DHT22;370;48.810;9.150;2023-05-14T01:21:28;11.40;59.60
774;DHT22;370;48.810;9.150;2023-05-14T01:23:59;11.30;59.40
774;DHT22;370;48.810;9.150;2023-05-14T01:26:26;11.20;58.90
774;DHT22;370;48.810;9.150;2023-05-14T01:28:56;11.10;58.30
774;DHT22;370;48.810;9.150;2023-05-14T01:31:27;11.00;59.10
774;DHT22;370;48.810;9.150;2023-05-14T01:33:57;11.00;59.20
774;DHT22;370;48.810;9.150;2023-05-14T01:36:27;10.90;59.30
774;DHT22;370;48.810;9.150;2023-05-14T01:38:56;10.80;59.20
774;DHT22;370;48.810;9.150;2023-05-14T01:41:24;10.80;59.30
774;DHT22;370;48.810;9.150;2023-05-14T01:43:51;10.70;59.00
774;DHT22;370;48.810;9.150;2023-05-14T01:46:18;10.70;59.30
774;DHT22;370;48.810;9.150;2023-05-14T01:48:46;10.60;59.20
774;DHT22;370;48.810;9.150;2023-05-14T01:51:13;10.60;60.00
774;DHT22;370;48.810;9.150;2023-05-14T01:53:41;10.60;59.70
774;DHT22;370;48.810;9.150;2023-05-14T01:56:08;10.50;60.00
774;DHT22;370;48.810;9.150;2023-05-14T01:58:35;10.50;60.20
774;DHT22;370;48.810;9.150;2023-05-14T02:01:01;10.40;60.60
774;DHT22;370;48.810;9.150;2023-05-14T02:03:28;10.40;60.60
774;DHT22;370;48.810;9.150;2023-05-14T02:05:55;10.40;60.60
774;DHT22;370;48.810;9.150;2023-05-14T02:08:22;10.40;60.60
774;DHT22;370;48.810;9.150;2023-05-14T02:10:50;10.30;60.40
774;DHT22;370;48.810;9.150;2023-05-14T02:13:17;10.30;60.40
774;DHT22;370;48.810;9.150;2023-05-14T02:15:44;10.30;60.40
774;DHT22;370;48.810;9.150;2023-05-14T02:18:11;10.20;59.90
774;DHT22;370;48.810;9.150;2023-05-14T02:20:38;10.20;60.10
774;DHT22;370;48.810;9.150;2023-05-14T02:23:05;10.20;59.40
774;DHT22;370;48.810;9.150;2023-05-14T02:25:32;10.20;60.80
774;DHT22;370;48.810;9.150;2023-05-14T02:28:00;10.30;63.70
774;DHT22;370;48.810;9.150;2023-05-14T02:30:27;10.30;64.80
774;DHT22;370;48.810;9.150;2023-05-14T02:32:54;10.30;65.90
774;DHT22;370;48.810;9.150;2023-05-14T02:35:21;10.40;67.00
774;DHT22;370;48.810;9.150;2023-05-14T02:37:48;10.40;66.90
774;DHT22;370;48.810;9.150;2023-05-14T02:40:15;10.40;67.20
774;DHT22;370;48.810;9.150;2023-05-14T02:42:42;10.40;66.30
774;DHT22;370;48.810;9.150;2023-05-14T02:45:11;10.40;65.70
774;DHT22;370;48.810;9.150;2023-05-14T02:47:37;10.40;65.50
774;DHT22;370;48.810;9.150;2023-05-14T02:50:05;10.40;64.70
774;DHT22;370;48.810;9.150;2023-05-14T02:52:32;10.40;64.50
774;DHT22;370;48.810;9.150;2023-05-14T02:54:59;10.40;64.30
774;DHT22;370;48.810;9.150;2023-05-14T02:57:26;10.40;64.90
774;DHT22;370;48.810;9.150;2023-05-14T02:59:53;10.50;65.60
774;DHT22;370;48.810;9.150;2023-05-14T03:02:21;10.50;65.80
774;DHT22;370;48.810;9.150;2023-05-14T03:04:48;10.50;66.20
774;DHT22;370;48.810;9.150;2023-05-14T03:07:15;10.60;66.10
774;DHT22;370;48.810;9.150;2023-05-14T03:09:42;10.60;66.40
774;DHT22;370;48.810;9.150;2023-05-14T03:12:08;10.60;66.70
774;DHT22;370;48.810;9.150;2023-05-14T03:14:35;10.70;67.30
774;DHT22;370;48.810;9.150;2023-05-14T03:17:02;10.70;66.70
774;DHT22;370;48.810;9.150;2023-05-14T03:19:30;10.80;66.00
774;DHT22;370;48.810;9.150;2023-05-14T03:21:57;10.80;65.10
774;DHT22;370;48.810;9.150;2023-05-14T03:24:24;10.80;65.70
774;DHT22;370;48.810;9.150;2023-05-14T03:26:51;10.80;66.00
774;DHT22;370;48.810;9.150;2023-05-14T03:29:18;10.80;66.70
774;DHT22;370;48.810;9.150;2023-05-14T03:31:45;10.90;67.00
774;DHT22;370;48.810;9.150;2023-05-14T03:34:12;10.90;66.50
774;DHT22;370;48.810;9.150;2023-05-14T03:36:40;10.90;65.70
774;DHT22;370;48.810;9.150;2023-05-14T03:39:07;10.90;66.70
774;DHT22;370;48.810;9.150;2023-05-14T03:41:34;11.00;66.60
774;DHT22;370;48.810;9.150;2023-05-14T03:44:02;11.00;66.30
774;DHT22;370;48.810;9.150;2023-05-14T03:46:30;11.10;65.40
774;DHT22;370;48.810;9.150;2023-05-14T03:48:57;11.10;65.00
774;DHT22;370;48.810;9.150;2023-05-14T03:51:24;11.10;64.40
774;DHT22;370;48.810;9.150;2023-05-14T03:53:52;11.00;64.30
774;DHT22;370;48.810;9.150;2023-05-14T03:56:19;11.00;65.10
774;DHT22;370;48.810;9.150;2023-05-14T03:58:47;11.10;64.80
774;DHT22;370;48.810;9.150;2023-05-14T04:01:13;11.10;65.20
774;DHT22;370;48.810;9.150;2023-05-14T04:03:40;11.10;64.50
774;DHT22;370;48.810;9.150;2023-05-14T04:06:07;11.20;64.80
774;DHT22;370;48.810;9.150;2023-05-14T04:08:34;11.20;64.50
774;DHT22;370;48.810;9.150;2023-05-14T04:11:02;11.20;63.00
774;DHT22;370;48.810;9.150;2023-05-14T04:13:29;11.20;61.30
774;DHT22;370;48.810;9.150;2023-05-14T04:15:56;11.20;60.90
774;DHT22;370;48.810;9.150;2023-05-14T04:18:24;11.20;60.30
774;DHT22;370;48.810;9.150;2023-05-14T04:20:50;11.20;60.10
774;DHT22;370;48.810;9.150;2023-05-14T04:23:17;11.20;60.40
774;DHT22;370;48.810;9.150;2023-05-14T04:25:44;11.20;61.60
774;DHT22;370;48.810;9.150;2023-05-14T04:28:12;11.30;61.40
774;DHT22;370;48.810;9.150;2023-05-14T04:30:40;11.30;61.40
774;DHT22;370;48.810;9.150;2023-05-14T04:33:06;11.30;61.40
774;DHT22;370;48.810;9.150;2023-05-14T04:35:33;11.40;60.00
774;DHT22;370;48.810;9.150;2023-05-14T04:38:00;11.40;58.20
774;DHT22;370;48.810;9.150;2023-05-14T04:40:27;11.40;57.50
774;DHT22;370;48.810;9.150;2023-05-14T04:42:55;11.40;58.40
774;DHT22;370;48.810;9.150;2023-05-14T04:45:23;11.40;58.70
774;DHT22;370;48.810;9.150;2023-05-14T04:47:51;11.40;58.60
774;DHT22;370;48.810;9.150;2023-05-14T04:50:17;11.40;56.70
774;DHT22;370;48.810;9.150;2023-05-14T04:52:44;11.50;53.60
774;DHT22;370;48.810;9.150;2023-05-14T04:55:11;11.40;51.90
774;DHT22;370;48.810;9.150;2023-05-14T04:57:38;11.40;51.30
774;DHT22;370;48.810;9.150;2023-05-14T05:00:06;11.40;51.80
774;DHT22;370;48.810;9.150;2023-05-14T05:02:35;11.40;52.30
774;DHT22;370;48.810;9.150;2023-05-14T05:05:03;11.40;53.70
774;DHT22;370;48.810;9.150;2023-05-14T05:07:29;11.40;53.40
774;DHT22;370;48.810;9.150;2023-05-14T05:09:56;11.50;53.90
774;DHT22;370;48.810;9.150;2023-05-14T05:12:23;11.50;50.60
774;DHT22;370;48.810;9.150;2023-05-14T05:14:50;11.50;48.80
774;DHT22;370;48.810;9.150;2023-05-14T05:17:17;11.50;49.10
774;DHT22;370;48.810;9.150;2023-05-14T05:19:45;11.50;47.00
774;DHT22;370;48.810;9.150;2023-05-14T05:22:12;11.60;46.70
774;DHT22;370;48.810;9.150;2023-05-14T05:24:39;11.60;47.10
774;DHT22;370;48.810;9.150;2023-05-14T05:27:06;11.60;45.90
774;DHT22;370;48.810;9.150;2023-05-14T05:29:33;11.60;47.80
774;DHT22;370;48.810;9.150;2023-05-14T05:32:00;11.60;48.30
774;DHT22;370;48.810;9.150;2023-05-14T05:34:27;11.70;46.30
774;DHT22;370;48.810;9.150;2023-05-14T05:36:55;11.80;44.90
774;DHT22;370;48.810;9.150;2023-05-14T05:39:22;11.80;45.20
774;DHT22;370;48.810;9.150;2023-05-14T05:41:49;11.80;46.40
774;DHT22;370;48.810;9.150;2023-05-14T05:44:16;12.00;44.90
774;DHT22;370;48.810;9.150;2023-05-14T05:46:43;12.10;39.50
774;DHT22;370;48.810;9.150;2023-05-14T05:49:10;12.10;39.40
774;DHT22;370;48.810;9.150;2023-05-14T05:51:37;12.10;39.90
774;DHT22;370;48.810;9.150;2023-05-14T05:54:05;12.20;36.60
774;DHT22;370;48.810;9.150;2023-05-14T05:56:32;12.30;35.70
774;DHT22;370;48.810;9.150;2023-05-14T05:58:59;12.30;37.20
774;DHT22;370;48.810;9.150;2023-05-14T06:01:26;12.40;35.40
774;DHT22;370;48.810;9.150;2023-05-14T06:03:53;12.40;34.70
774;DHT22;370;48.810;9.150;2023-05-14T06:06:20;12.40;35.60
774;DHT22;370;48.810;9.150;2023-05-14T06:08:47;12.40;33.70
774;DHT22;370;48.810;9.150;2023-05-14T06:11:15;12.60;33.30
774;DHT22;370;48.810;9.150;2023-05-14T06:13:42;12.60;34.20
774;DHT22;370;48.810;9.150;2023-05-14T06:16:09;12.80;32.90
774;DHT22;370;48.810;9.150;2023-05-14T06:18:36;12.80;31.60
774;DHT22;370;48.810;9.150;2023-05-14T06:21:03;13.10;29.10
774;DHT22;370;48.810;9.150;2023-05-14T06:23:30;13.30;26.90
774;DHT22;370;48.810;9.150;2023-05-14T06:25:56;13.50;24.60
774;DHT22;370;48.810;9.150;2023-05-14T06:28:24;13.50;26.40
774;DHT22;370;48.810;9.150;2023-05-14T06:30:51;13.70;23.90
774;DHT22;370;48.810;9.150;2023-05-14T06:33:19;13.80;20.80
774;DHT22;370;48.810;9.150;2023-05-14T06:35:53;13.80;20.90
774;DHT22;370;48.810;9.150;2023-05-14T06:38:20;14.00;19.30
774;DHT22;370;48.810;9.150;2023-05-14T06:40:47;14.20;18.00
774;DHT22;370;48.810;9.150;2023-05-14T06:43:14;14.20;18.80
774;DHT22;370;48.810;9.150;2023-05-14T06:45:42;14.40;18.60
774;DHT22;370;48.810;9.150;2023-05-14T06:48:09;14.50;18.30
774;DHT22;370;48.810;9.150;2023-05-14T06:50:36;14.50;16.80
774;DHT22;370;48.810;9.150;2023-05-14T06:53:02;14.70;15.70
774;DHT22;370;48.810;9.150;2023-05-14T06:55:29;14.80;15.70
774;DHT22;370;48.810;9.150;2023-05-14T06:57:56;14.90;13.00
774;DHT22;370;48.810;9.150;2023-05-14T07:00:23;15.00;10.60
774;DHT22;370;48.810;9.150;2023-05-14T07:02:51;15.10;11.00
774;DHT22;370;48.810;9.150;2023-05-14T07:05:18;15.20;10.50
774;DHT22;370;48.810;9.150;2023-05-14T07:07:45;15.20;10.40
774;DHT22;370;48.810;9.150;2023-05-14T07:10:11;15.30;9.60
774;DHT22;370;48.810;9.150;2023-05-14T07:12:38;15.30;10.70
774;DHT22;370;48.810;9.150;2023-05-14T07:15:06;15.40;10.60
774;DHT22;370;48.810;9.150;2023-05-14T07:17:33;15.50;10.60
774;DHT22;370;48.810;9.150;2023-05-14T07:20:02;15.60;8.90
774;DHT22;370;48.810;9.150;2023-05-14T07:22:28;15.70;7.30
774;DHT22;370;48.810;9.150;2023-05-14T07:24:55;15.60;7.80
774;DHT22;370;48.810;9.150;2023-05-14T07:27:22;15.70;7.50
774;DHT22;370;48.810;9.150;2023-05-14T07:29:49;15.60;7.10
774;DHT22;370;48.810;9.150;2023-05-14T07:32:16;15.70;7.30
774;DHT22;370;48.810;9.150;2023-05-14T07:34:42;15.90;6.70
774;DHT22;370;48.810;9.150;2023-05-14T07:37:11;16.10;6.00
774;DHT22;370;48.810;9.150;2023-05-14T07:39:38;16.30;5.60
774;DHT22;370;48.810;9.150;2023-05-14T07:42:06;16.40;6.20
774;DHT22;370;48.810;9.150;2023-05-14T07:44:33;16.60;6.40
774;DHT22;370;48.810;9.150;2023-05-14T07:47:00;17.00;3.90
774;DHT22;370;48.810;9.150;2023-05-14T07:49:28;17.40;1.40
774;DHT22;370;48.810;9.150;2023-05-14T07:51:55;17.40;1.00
774;DHT22;370;48.810;9.150;2023-05-14T07:54:23;17.80;1.00
774;DHT22;370;48.810;9.150;2023-05-14T07:56:50;17.90;1.00
774;DHT22;370;48.810;9.150;2023-05-14T07:59:17;18.30;1.00
774;DHT22;370;48.810;9.150;2023-05-14T08:01:43;18.60;1.00
774;DHT22;370;48.810;9.150;2023-05-14T08:04:10;19.00;1.00
774;DHT22;370;48.810;9.150;2023-05-14T08:06:37;19.90;1.00
774;DHT22;370;48.810;9.150;2023-05-14T08:09:04;20.80;1.00
774;DHT22;370;48.810;9.150;2023-05-14T08:11:32;21.10;1.00
774;DHT22;370;48.810;9.150;2023-05-14T08:13:59;22.20;1.00
774;DHT22;370;48.810;9.150;2023-05-14T08:16:26;22.70;1.00
774;DHT22;370;48.810;9.150;2023-05-14T08:18:53;23.70;1.00
774;DHT22;370;48.810;9.150;2023-05-14T08:21:20;25.20;1.00
774;DHT22;370;48.810;9.150;2023-05-14T08:23:47;26.70;1.00
774;DHT22;370;48.810;9.150;2023-05-14T08:26:14;27.40;1.00
774;DHT22;370;48.810;9.150;2023-05-14T08:28:42;27.40;1.00
774;DHT22;370;48.810;9.150;2023-05-14T08:31:09;26.50;1.00
774;DHT22;370;48.810;9.150;2023-05-14T08:33:35;26.10;1.00
774;DHT22;370;48.810;9.150;2023-05-14T08:36:02;25.50;1.00
774;DHT22;370;48.810;9.150;2023-05-14T08:38:29;25.50;1.00
774;DHT22;370;48.810;9.150;2023-05-14T08:40:56;25.50;1.00
774;DHT22;370;48.810;9.150;2023-05-14T08:43:26;25.70;1.00
774;DHT22;370;48.810;9.150;2023-05-14T08:45:59;25.70;1.00
774;DHT22;370;48.810;9.150;2023-05-14T08:48:30;25.70;1.00
774;DHT22;370;48.810;9.150;2023-05-14T08:50:58;26.10;1.00
774;DHT22;370;48.810;9.150;2023-05-14T08:53:25;26.40;1.00
774;DHT22;370;48.810;9.150;2023-05-14T08:55:53;27.10;1.00
774;DHT22;370;48.810;9.150;2023-05-14T08:58:20;27.60;1.00
774;DHT22;370;48.810;9.150;2023-05-14T09:00:47;27.50;1.00
774;DHT22;370;48.810;9.150;2023-05-14T09:03:16;27.70;1.00
774;DHT22;370;48.810;9.150;2023-05-14T09:05:43;28.90;1.00
774;DHT22;370;48.810;9.150;2023-05-14T09:08:11;29.30;1.00
774;DHT22;370;48.810;9.150;2023-05-14T09:10:38;29.60;1.00
774;DHT22;370;48.810;9.150;2023-05-14T09:13:05;29.20;1.00
774;DHT22;370;48.810;9.150;2023-05-14T09:15:36;29.10;1.00
774;DHT22;370;48.810;9.150;2023-05-14T09:18:06;28.50;1.00
774;DHT22;370;48.810;9.150;2023-05-14T09:20:35;27.90;1.00
774;DHT22;370;48.810;9.150;2023-05-14T09:26:25;26.00;1.00
774;DHT22;370;48.810;9.150;2023-05-14T09:28:55;26.70;1.00
774;DHT22;370;48.810;9.150;2023-05-14T09:31:25;27.60;1.00
774;DHT22;370;48.810;9.150;2023-05-14T09:33:52;29.00;1.00
774;DHT22;370;48.810;9.150;2023-05-14T09:36:20;30.60;1.00
774;DHT22;370;48.810;9.150;2023-05-14T09:38:47;32.70;1.00
774;DHT22;370;48.810;9.150;2023-05-14T09:41:14;34.00;1.00
774;DHT22;370;48.810;9.150;2023-05-14T09:43:41;35.80;1.00
774;DHT22;370;48.810;9.150;2023-05-14T09:46:08;34.60;1.00
774;DHT22;370;48.810;9.150;2023-05-14T09:48:35;33.50;1.00
774;DHT22;370;48.810;9.150;2023-05-14T09:51:02;34.00;1.00
774;DHT22;370;48.810;9.150;2023-05-14T09:53:31;35.20;1.00
774;DHT22;370;48.810;9.150;2023-05-14T09:56:00;34.60;1.00
774;DHT22;370;48.810;9.150;2023-05-14T09:58:27;33.30;1.00
774;DHT22;370;48.810;9.150;2023-05-14T10:00:56;31.80;1.00
774;DHT22;370;48.810;9.150;2023-05-14T10:03:24;30.20;1.00
774;DHT22;370;48.810;9.150;2023-05-14T10:05:53;29.20;1.00
774;DHT22;370;48.810;9.150;2023-05-14T10:08:25;28.50;1.00
774;DHT22;370;48.810;9.150;2023-05-14T10:10:55;28.30;1.00
774;DHT22;370;48.810;9.150;2023-05-14T10:13:26;28.20;1.00
774;DHT22;370;48.810;9.150;2023-05-14T10:16:00;26.80;1.00
774;DHT22;370;48.810;9.150;2023-05-14T10:18:35;25.60;1.00
774;DHT22;370;48.810;9.150;2023-05-14T10:21:06;25.70;1.00
774;DHT22;370;48.810;9.150;2023-05-14T10:23:33;25.90;1.00
774;DHT22;370;48.810;9.150;2023-05-14T10:26:03;25.80;1.00
774;DHT22;370;48.810;9.150;2023-05-14T10:28:31;25.90;1.00
774;DHT22;370;48.810;9.150;2023-05-14T10:30:58;26.00;1.00
774;DHT22;370;48.810;9.150;2023-05-14T10:33:26;25.80;1.00
774;DHT22;370;48.810;9.150;2023-05-14T10:35:58;25.90;1.00
774;DHT22;370;48.810;9.150;2023-05-14T10:38:26;27.00;1.00
774;DHT22;370;48.810;9.150;2023-05-14T10:47:43;30.00;1.00
774;DHT22;370;48.810;9.150;2023-05-14T10:50:12;30.60;1.00
774;DHT22;370;48.810;9.150;2023-05-14T10:52:40;30.20;1.00
774;DHT22;370;48.810;9.150;2023-05-14T10:55:11;29.20;1.00
774;DHT22;370;48.810;9.150;2023-05-14T10:57:39;30.60;1.00
774;DHT22;370;48.810;9.150;2023-05-14T11:00:08;31.40;1.00
774;DHT22;370;48.810;9.150;2023-05-14T11:02:38;30.20;1.00
774;DHT22;370;48.810;9.150;2023-05-14T11:05:08;28.60;1.00
774;DHT22;370;48.810;9.150;2023-05-14T11:07:37;27.20;1.00
774;DHT22;370;48.810;9.150;2023-05-14T11:10:05;26.10;1.00
774;DHT22;370;48.810;9.150;2023-05-14T11:12:34;25.10;1.00
774;DHT22;370;48.810;9.150;2023-05-14T11:15:04;24.70;1.00
774;DHT22;370;48.810;9.150;2023-05-14T11:17:33;25.10;1.00
774;DHT22;370;48.810;9.150;2023-05-14T11:20:00;26.10;1.00
774;DHT22;370;48.810;9.150;2023-05-14T11:22:28;28.00;1.00
774;DHT22;370;48.810;9.150;2023-05-14T11:24:55;28.10;1.00
774;DHT22;370;48.810;9.150;2023-05-14T11:27:22;27.40;1.00
774;DHT22;370;48.810;9.150;2023-05-14T11:29:49;26.50;1.00
774;DHT22;370;48.810;9.150;2023-05-14T11:32:17;26.00;1.00
774;DHT22;370;48.810;9.150;2023-05-14T11:34:44;26.50;1.00
774;DHT22;370;48.810;9.150;2023-05-14T11:37:13;28.00;1.00
774;DHT22;370;48.810;9.150;2023-05-14T11:39:47;28.10;1.00
774;DHT22;370;48.810;9.150;2023-05-14T11:42:14;27.50;1.00
774;DHT22;370;48.810;9.150;2023-05-14T11:44:43;26.70;1.00
774;DHT22;370;48.810;9.150;2023-05-14T11:47:10;26.30;1.00
774;DHT22;370;48.810;9.150;2023-05-14T11:49:37;27.70;1.00
774;DHT22;370;48.810;9.150;2023-05-14T11:52:06;30.80;1.00
774;DHT22;370;48.810;9.150;2023-05-14T11:54:33;31.50;1.00
774;DHT22;370;48.810;9.150;2023-05-14T11:57:07;32.20;1.00
774;DHT22;370;48.810;9.150;2023-05-14T11:59:34;35.20;1.00
774;DHT22;370;48.810;9.150;2023-05-14T12:02:01;37.80;1.00
774;DHT22;370;48.810;9.150;2023-05-14T12:04:29;38.20;1.00
774;DHT22;370;48.810;9.150;2023-05-14T12:06:57;37.60;1.00
774;DHT22;370;48.810;9.150;2023-05-14T12:09:25;36.10;1.00
774;DHT22;370;48.810;9.150;2023-05-14T12:11:52;34.20;1.00
774;DHT22;370;48.810;9.150;2023-05-14T12:14:22;32.50;1.00
774;DHT22;370;48.810;9.150;2023-05-14T12:16:49;30.60;1.00
774;DHT22;370;48.810;9.150;2023-05-14T12:19:18;29.60;1.00
774;DHT22;370;48.810;9.150;2023-05-14T12:21:47;28.60;1.00
774;DHT22;370;48.810;9.150;2023-05-14T12:24:17;27.10;1.00
774;DHT22;370;48.810;9.150;2023-05-14T12:26:44;26.40;1.00
774;DHT22;370;48.810;9.150;2023-05-14T12:29:13;25.50;1.00
774;DHT22;370;48.810;9.150;2023-05-14T12:31:45;24.70;1.00
774;DHT22;370;48.810;9.150;2023-05-14T12:34:13;24.30;1.00
774;DHT22;370;48.810;9.150;2023-05-14T12:36:40;23.90;1.00
774;DHT22;370;48.810;9.150;2023-05-14T12:39:07;23.70;1.00
774;DHT22;370;48.810;9.150;2023-05-14T12:41:35;23.60;1.00
774;DHT22;370;48.810;9.150;2023-05-14T12:44:02;23.50;1.00
774;DHT22;370;48.810;9.150;2023-05-14T12:46:29;24.90;1.00
774;DHT22;370;48.810;9.150;2023-05-14T12:48:57;28.40;1.00
774;DHT22;370;48.810;9.150;2023-05-14T12:51:24;32.00;1.00
774;DHT22;370;48.810;9.150;2023-05-14T12:53:51;33.60;1.00
774;DHT22;370;48.810;9.150;2023-05-14T12:56:18;35.10;1.00
774;DHT22;370;48.810;9.150;2023-05-14T12:58:46;36.60;1.00
774;DHT22;370;48.810;9.150;2023-05-14T13:01:12;35.80;1.00
774;DHT22;370;48.810;9.150;2023-05-14T13:03:39;34.60;1.00
774;DHT22;370;48.810;9.150;2023-05-14T13:06:07;33.60;1.00
774;DHT22;370;48.810;9.150;2023-05-14T13:08:34;32.30;1.00
774;DHT22;370;48.810;9.150;2023-05-14T13:11:01;31.20;1.00
774;DHT22;370;48.810;9.150;2023-05-14T13:13:28;30.50;1.00
774;DHT22;370;48.810;9.150;2023-05-14T13:15:55;30.30;1.00
774;DHT22;370;48.810;9.150;2023-05-14T13:18:22;31.90;1.00
774;DHT22;370;48.810;9.150;2023-05-14T13:20:50;32.20;1.00
774;DHT22;370;48.810;9.150;2023-05-14T13:23:18;32.10;1.00
774;DHT22;370;48.810;9.150;2023-05-14T13:25:45;30.70;1.00
774;DHT22;370;48.810;9.150;2023-05-14T13:28:12;29.50;1.00
774;DHT22;370;48.810;9.150;2023-05-14T13:30:38;30.10;1.00
774;DHT22;370;48.810;9.150;2023-05-14T13:33:05;32.10;1.00
774;DHT22;370;48.810;9.150;2023-05-14T13:35:32;32.40;1.00
774;DHT22;370;48.810;9.150;2023-05-14T13:38:00;31.40;1.00
774;DHT22;370;48.810;9.150;2023-05-14T13:40:28;30.50;1.00
774;DHT22;370;48.810;9.150;2023-05-14T13:42:55;29.60;1.00
774;DHT22;370;48.810;9.150;2023-05-14T13:45:21;28.80;1.00
774;DHT22;370;48.810;9.150;2023-05-14T13:47:48;28.00;1.00
774;DHT22;370;48.810;9.150;2023-05-14T13:50:15;27.80;1.00
774;DHT22;370;48.810;9.150;2023-05-14T13:52:42;29.50;1.00
774;DHT22;370;48.810;9.150;2023-05-14T13:55:08;29.80;1.00
774;DHT22;370;48.810;9.150;2023-05-14T13:57:37;29.30;1.00
774;DHT22;370;48.810;9.150;2023-05-14T14:00:05;28.40;1.00
774;DHT22;370;48.810;9.150;2023-05-14T14:02:33;27.80;1.00
774;DHT22;370;48.810;9.150;2023-05-14T14:05:00;27.20;1.00
774;DHT22;370;48.810;9.150;2023-05-14T14:07:26;26.60;1.00
774;DHT22;370;48.810;9.150;2023-05-14T14:09:53;26.60;1.00
774;DHT22;370;48.810;9.150;2023-05-14T14:12:20;26.90;1.00
774;DHT22;370;48.810;9.150;2023-05-14T14:14:48;28.20;1.00
774;DHT22;370;48.810;9.150;2023-05-14T14:17:15;30.10;1.00
774;DHT22;370;48.810;9.150;2023-05-14T14:19:42;30.20;1.00
774;DHT22;370;48.810;9.150;2023-05-14T14:22:09;30.80;1.00
774;DHT22;370;48.810;9.150;2023-05-14T14:24:37;32.40;1.00
774;DHT22;370;48.810;9.150;2023-05-14T14:27:04;32.50;1.00
774;DHT22;370;48.810;9.150;2023-05-14T14:29:31;32.40;1.00
774;DHT22;370;48.810;9.150;2023-05-14T14:32:00;32.50;1.00
774;DHT22;370;48.810;9.150;2023-05-14T14:34:27;31.70;1.00
774;DHT22;370;48.810;9.150;2023-05-14T14:36:53;30.30;1.00
774;DHT22;370;48.810;9.150;2023-05-14T14:39:20;29.10;1.00
774;DHT22;370;48.810;9.150;2023-05-14T14:41:49;28.60;1.00
774;DHT22;370;48.810;9.150;2023-05-14T14:44:16;27.90;1.00
774;DHT22;370;48.810;9.150;2023-05-14T14:46:43;27.80;1.00
774;DHT22;370;48.810;9.150;2023-05-14T14:49:11;27.70;1.00
774;DHT22;370;48.810;9.150;2023-05-14T14:51:38;27.50;1.00
774;DHT22;370;48.810;9.150;2023-05-14T14:54:05;27.10;1.00
774;DHT22;370;48.810;9.150;2023-05-14T14:56:32;26.70;1.00
774;DHT22;370;48.810;9.150;2023-05-14T14:59:00;26.50;1.00
774;DHT22;370;48.810;9.150;2023-05-14T15:01:27;27.80;1.00
774;DHT22;370;48.810;9.150;2023-05-14T15:03:54;28.80;1.00
774;DHT22;370;48.810;9.150;2023-05-14T15:06:22;30.00;1.00
774;DHT22;370;48.810;9.150;2023-05-14T15:08:49;31.00;1.00
774;DHT22;370;48.810;9.150;2023-05-14T15:11:16;31.40;1.00
774;DHT22;370;48.810;9.150;2023-05-14T15:13:43;31.90;1.00
774;DHT22;370;48.810;9.150;2023-05-14T15:16:10;32.10;1.00
774;DHT22;370;48.810;9.150;2023-05-14T15:18:38;32.20;1.00
774;DHT22;370;48.810;9.150;2023-05-14T15:21:04;32.50;1.00
774;DHT22;370;48.810;9.150;2023-05-14T15:23:33;32.20;1.00
774;DHT22;370;48.810;9.150;2023-05-14T15:25:59;32.10;1.00
774;DHT22;370;48.810;9.150;2023-05-14T15:28:26;32.10;1.00
774;DHT22;370;48.810;9.150;2023-05-14T15:30:53;32.60;1.00
774;DHT22;370;48.810;9.150;2023-05-14T15:33:20;33.10;1.00
774;DHT22;370;48.810;9.150;2023-05-14T15:35:47;33.20;1.00
774;DHT22;370;48.810;9.150;2023-05-14T15:38:14;32.30;1.00
774;DHT22;370;48.810;9.150;2023-05-14T15:40:42;31.30;1.00
774;DHT22;370;48.810;9.150;2023-05-14T15:43:09;31.60;1.00
774;DHT22;370;48.810;9.150;2023-05-14T15:45:36;31.30;1.00
774;DHT22;370;48.810;9.150;2023-05-14T15:48:03;29.70;1.00
774;DHT22;370;48.810;9.150;2023-05-14T15:50:30;28.20;1.00
774;DHT22;370;48.810;9.150;2023-05-14T15:52:56;27.00;1.00
774;DHT22;370;48.810;9.150;2023-05-14T15:55:23;26.00;1.00
774;DHT22;370;48.810;9.150;2023-05-14T15:57:51;25.20;1.00
774;DHT22;370;48.810;9.150;2023-05-14T16:00:19;24.50;1.00
774;DHT22;370;48.810;9.150;2023-05-14T16:02:46;23.80;1.00
774;DHT22;370;48.810;9.150;2023-05-14T16:05:13;23.20;1.00
774;DHT22;370;48.810;9.150;2023-05-14T16:07:40;22.50;1.00
774;DHT22;370;48.810;9.150;2023-05-14T16:10:08;22.30;1.00
774;DHT22;370;48.810;9.150;2023-05-14T16:12:35;22.20;1.00
774;DHT22;370;48.810;9.150;2023-05-14T16:15:05;22.10;1.00
774;DHT22;370;48.810;9.150;2023-05-14T16:17:32;21.90;1.00
774;DHT22;370;48.810;9.150;2023-05-14T16:20:00;21.60;1.00
774;DHT22;370;48.810;9.150;2023-05-14T16:22:29;21.40;1.00
774;DHT22;370;48.810;9.150;2023-05-14T16:24:57;21.40;1.00
774;DHT22;370;48.810;9.150;2023-05-14T16:27:24;21.20;1.00
774;DHT22;370;48.810;9.150;2023-05-14T16:29:51;20.80;1.00
774;DHT22;370;48.810;9.150;2023-05-14T16:32:20;20.60;1.00
774;DHT22;370;48.810;9.150;2023-05-14T16:34:47;20.50;1.00
774;DHT22;370;48.810;9.150;2023-05-14T16:37:15;20.40;1.00
774;DHT22;370;48.810;9.150;2023-05-14T16:39:42;20.20;1.00
774;DHT22;370;48.810;9.150;2023-05-14T16:42:09;19.90;1.00
774;DHT22;370;48.810;9.150;2023-05-14T16:44:35;19.90;1.00
774;DHT22;370;48.810;9.150;2023-05-14T16:47:02;19.90;1.00
774;DHT22;370;48.810;9.150;2023-05-14T16:49:31;19.90;1.00
774;DHT22;370;48.810;9.150;2023-05-14T16:51:57;19.90;1.00
774;DHT22;370;48.810;9.150;2023-05-14T16:54:24;19.80;1.00
774;DHT22;370;48.810;9.150;2023-05-14T16:56:51;19.80;1.00